sensor_id;sensor_type;location;lat;lon;timestamp;pressure;altitude;pressure_sealevel;temperature;humidity
59073;BME280;44859;51.934;15.554;2023-02-16T00:01:38;100575.19;;;-0.63;83.54
59073;BME280;44859;51.934;15.554;2023-02-16T00:04:51;100574.46;;;-0.67;83.88
59073;BME280;44859;51.934;15.554;2023-02-16T00:08:05;100569.85;;;-0.62;84.23
59073;BME280;44859;51.934;15.554;2023-02-16T00:11:10;100562.98;;;-0.57;84.33
59073;BME280;44859;51.934;15.554;2023-02-16T00:14:16;100562.16;;;-0.54;84.59
59073;BME280;44859;51.934;15.554;2023-02-16T00:17:43;100556.48;;;-0.51;84.60
59073;BME280;44859;51.934;15.554;2023-02-16T00:20:39;100552.85;;;-0.52;84.83
59073;BME280;44859;51.934;15.554;2023-02-16T00:23:11;100554.23;;;-0.53;84.75
59073;BME280;44859;51.934;15.554;2023-02-16T00:25:42;100554.41;;;-0.51;84.80
59073;BME280;44859;51.934;15.554;2023-02-16T00:28:38;100556.48;;;-0.50;84.73
59073;BME280;44859;51.934;15.554;2023-02-16T00:31:22;100552.69;;;-0.51;84.72
59073;BME280;44859;51.934;15.554;2023-02-16T00:37:21;100546.28;;;-0.55;84.99
59073;BME280;44859;51.934;15.554;2023-02-16T00:40:28;100542.14;;;-0.54;85.10
59073;BME280;44859;51.934;15.554;2023-02-16T00:43:39;100537.33;;;-0.53;85.27
59073;BME280;44859;51.934;15.554;2023-02-16T00:47:03;100537.33;;;-0.53;85.33
59073;BME280;44859;51.934;15.554;2023-02-16T00:50:33;100534.21;;;-0.53;85.42
59073;BME280;44859;51.934;15.554;2023-02-16T00:53:25;100527.49;;;-0.51;85.54
59073;BME280;44859;51.934;15.554;2023-02-16T00:56:26;100532.48;;;-0.51;85.43
59073;BME280;44859;51.934;15.554;2023-02-16T00:59:15;100531.45;;;-0.54;85.26
59073;BME280;44859;51.934;15.554;2023-02-16T01:01:53;100528.50;;;-0.56;85.53
59073;BME280;44859;51.934;15.554;2023-02-16T01:04:44;100522.10;;;-0.57;85.44
59073;BME280;44859;51.934;15.554;2023-02-16T01:07:26;100521.59;;;-0.58;85.45
59073;BME280;44859;51.934;15.554;2023-02-16T01:10:23;100521.76;;;-0.58;85.73
59073;BME280;44859;51.934;15.554;2023-02-16T01:13:42;100517.10;;;-0.57;85.58
59073;BME280;44859;51.934;15.554;2023-02-16T01:16:40;100520.73;;;-0.56;85.39
59073;BME280;44859;51.934;15.554;2023-02-16T01:19:25;100522.11;;;-0.56;85.77
59073;BME280;44859;51.934;15.554;2023-02-16T01:22:13;100516.08;;;-0.57;85.57
59073;BME280;44859;51.934;15.554;2023-02-16T01:24:50;100516.26;;;-0.53;85.72
59073;BME280;44859;51.934;15.554;2023-02-16T01:27:36;100513.00;;;-0.50;85.77
59073;BME280;44859;51.934;15.554;2023-02-16T01:30:25;100509.05;;;-0.48;85.64
59073;BME280;44859;51.934;15.554;2023-02-16T01:33:11;100507.88;;;-0.44;85.92
59073;BME280;44859;51.934;15.554;2023-02-16T01:35:56;100510.00;;;-0.38;85.65
59073;BME280;44859;51.934;15.554;2023-02-16T01:38:42;100502.42;;;-0.35;85.59
59073;BME280;44859;51.934;15.554;2023-02-16T01:44:20;100500.58;;;-0.26;85.40
59073;BME280;44859;51.934;15.554;2023-02-16T01:49:53;100494.59;;;-0.18;85.09
59073;BME280;44859;51.934;15.554;2023-02-16T01:52:41;100492.19;;;-0.17;85.04
59073;BME280;44859;51.934;15.554;2023-02-16T01:55:21;100498.77;;;-0.14;84.95
59073;BME280;44859;51.934;15.554;2023-02-16T01:58:12;100501.92;;;-0.08;85.07
59073;BME280;44859;51.934;15.554;2023-02-16T02:03:19;100500.20;;;-0.06;84.82
59073;BME280;44859;51.934;15.554;2023-02-16T02:06:35;100498.83;;;-0.05;84.81
59073;BME280;44859;51.934;15.554;2023-02-16T02:10:20;100499.19;;;-0.02;84.53
59073;BME280;44859;51.934;15.554;2023-02-16T02:13:56;100500.75;;;0.01;84.40
59073;BME280;44859;51.934;15.554;2023-02-16T02:17:00;100495.74;;;0.03;84.43
59073;BME280;44859;51.934;15.554;2023-02-16T02:23:17;100495.63;;;0.12;84.21
59073;BME280;44859;51.934;15.554;2023-02-16T02:35:48;100498.75;;;0.15;83.86
59073;BME280;44859;51.934;15.554;2023-02-16T02:41:56;100485.95;;;0.12;83.89
59073;BME280;44859;51.934;15.554;2023-02-16T02:47:55;100477.67;;;0.13;83.87
59073;BME280;44859;51.934;15.554;2023-02-16T02:50:43;100475.42;;;0.13;83.89
59073;BME280;44859;51.934;15.554;2023-02-16T02:54:05;100474.71;;;0.09;84.11
59073;BME280;44859;51.934;15.554;2023-02-16T02:57:31;100475.23;;;0.06;84.13
59073;BME280;44859;51.934;15.554;2023-02-16T03:01:03;100477.45;;;0.02;84.19
59073;BME280;44859;51.934;15.554;2023-02-16T03:04:01;100474.84;;;-0.02;84.23
59073;BME280;44859;51.934;15.554;2023-02-16T03:07:19;100482.98;;;-0.01;84.25
59073;BME280;44859;51.934;15.554;2023-02-16T03:10:34;100490.03;;;-0.03;84.54
59073;BME280;44859;51.934;15.554;2023-02-16T03:17:12;100487.63;;;0.00;84.42
59073;BME280;44859;51.934;15.554;2023-02-16T03:20:13;100488.67;;;0.04;84.20
59073;BME280;44859;51.934;15.554;2023-02-16T03:23:10;100495.77;;;0.06;84.42
59073;BME280;44859;51.934;15.554;2023-02-16T03:26:27;100490.09;;;0.09;84.23
59073;BME280;44859;51.934;15.554;2023-02-16T03:30:05;100480.25;;;0.11;84.32
59073;BME280;44859;51.934;15.554;2023-02-16T03:32:46;100478.87;;;0.10;84.32
59073;BME280;44859;51.934;15.554;2023-02-16T03:35:19;100481.98;;;0.12;84.23
59073;BME280;44859;51.934;15.554;2023-02-16T03:38:05;100480.77;;;0.11;84.38
59073;BME280;44859;51.934;15.554;2023-02-16T03:40:44;100482.33;;;0.09;84.18
59073;BME280;44859;51.934;15.554;2023-02-16T03:43:31;100485.91;;;0.05;84.24
59073;BME280;44859;51.934;15.554;2023-02-16T03:46:11;100486.77;;;-0.01;84.32
59073;BME280;44859;51.934;15.554;2023-02-16T03:48:57;100485.18;;;-0.05;84.59
59073;BME280;44859;51.934;15.554;2023-02-16T03:51:41;100491.21;;;-0.07;84.46
59073;BME280;44859;51.934;15.554;2023-02-16T03:54:20;100496.38;;;-0.10;84.56
59073;BME280;44859;51.934;15.554;2023-02-16T03:56:54;100493.79;;;-0.11;84.85
59073;BME280;44859;51.934;15.554;2023-02-16T03:59:44;100493.96;;;-0.11;84.88
59073;BME280;44859;51.934;15.554;2023-02-16T04:02:18;100488.95;;;-0.11;84.92
59073;BME280;44859;51.934;15.554;2023-02-16T04:04:55;100485.31;;;-0.12;84.84
59073;BME280;44859;51.934;15.554;2023-02-16T04:07:46;100482.73;;;-0.11;85.15
59073;BME280;44859;51.934;15.554;2023-02-16T04:10:20;100479.29;;;-0.09;85.27
59073;BME280;44859;51.934;15.554;2023-02-16T04:12:52;100478.79;;;-0.09;85.17
59073;BME280;44859;51.934;15.554;2023-02-16T04:15:41;100475.67;;;-0.07;85.16
59073;BME280;44859;51.934;15.554;2023-02-16T04:18:20;100477.94;;;-0.04;85.19
59073;BME280;44859;51.934;15.554;2023-02-16T04:20:52;100483.31;;;-0.02;85.22
59073;BME280;44859;51.934;15.554;2023-02-16T04:23:33;100484.50;;;-0.02;85.38
59073;BME280;44859;51.934;15.554;2023-02-16T04:26:06;100480.18;;;-0.03;85.41
59073;BME280;44859;51.934;15.554;2023-02-16T04:28:36;100472.23;;;-0.03;85.24
59073;BME280;44859;51.934;15.554;2023-02-16T04:31:22;100478.98;;;-0.04;85.32
59073;BME280;44859;51.934;15.554;2023-02-16T04:34:02;100477.77;;;-0.03;85.32
59073;BME280;44859;51.934;15.554;2023-02-16T04:36:35;100479.67;;;-0.02;85.41
59073;BME280;44859;51.934;15.554;2023-02-16T04:39:19;100471.91;;;0.01;85.36
59073;BME280;44859;51.934;15.554;2023-02-16T04:42:11;100469.66;;;0.02;85.42
59073;BME280;44859;51.934;15.554;2023-02-16T04:44:51;100467.10;;;0.05;85.37
59073;BME280;44859;51.934;15.554;2023-02-16T04:48:16;100467.98;;;0.09;85.43
59073;BME280;44859;51.934;15.554;2023-02-16T04:53:49;100467.30;;;0.10;85.48
59073;BME280;44859;51.934;15.554;2023-02-16T04:59:29;100463.83;;;0.08;85.35
59073;BME280;44859;51.934;15.554;2023-02-16T05:02:04;100461.93;;;0.10;85.20
59073;BME280;44859;51.934;15.554;2023-02-16T05:05:09;100460.04;;;0.08;85.37
59073;BME280;44859;51.934;15.554;2023-02-16T05:08:23;100461.91;;;0.05;85.41
59073;BME280;44859;51.934;15.554;2023-02-16T05:11:07;100466.91;;;0.02;85.50
59073;BME280;44859;51.934;15.554;2023-02-16T05:14:05;100462.74;;;-0.02;85.53
59073;BME280;44859;51.934;15.554;2023-02-16T05:17:27;100467.74;;;-0.04;85.66
59073;BME280;44859;51.934;15.554;2023-02-16T05:20:11;100468.60;;;-0.06;85.76
59073;BME280;44859;51.934;15.554;2023-02-16T05:23:14;100474.81;;;-0.06;85.80
59073;BME280;44859;51.934;15.554;2023-02-16T05:25:42;100475.50;;;-0.07;85.77
59073;BME280;44859;51.934;15.554;2023-02-16T05:28:20;100477.92;;;-0.08;85.85
59073;BME280;44859;51.934;15.554;2023-02-16T05:31:12;100474.13;;;-0.07;85.87
59073;BME280;44859;51.934;15.554;2023-02-16T05:34:51;100470.52;;;-0.04;85.89
59073;BME280;44859;51.934;15.554;2023-02-16T05:38:47;100468.77;;;-0.06;86.17
59073;BME280;44859;51.934;15.554;2023-02-16T05:41:39;100473.43;;;-0.08;85.77
59073;BME280;44859;51.934;15.554;2023-02-16T05:45:30;100469.61;;;-0.09;86.16
59073;BME280;44859;51.934;15.554;2023-02-16T05:48:17;100469.60;;;-0.12;86.11
59073;BME280;44859;51.934;15.554;2023-02-16T05:51:32;100466.48;;;-0.13;86.18
59073;BME280;44859;51.934;15.554;2023-02-16T05:55:04;100470.61;;;-0.17;86.39
59073;BME280;44859;51.934;15.554;2023-02-16T05:58:17;100474.04;;;-0.21;86.59
59073;BME280;44859;51.934;15.554;2023-02-16T06:01:39;100472.46;;;-0.25;86.56
59073;BME280;44859;51.934;15.554;2023-02-16T06:04:21;100472.10;;;-0.26;86.70
59073;BME280;44859;51.934;15.554;2023-02-16T06:07:24;100477.45;;;-0.26;86.92
59073;BME280;44859;51.934;15.554;2023-02-16T06:17:33;100482.11;;;-0.28;87.25
59073;BME280;44859;51.934;15.554;2023-02-16T06:20:48;100482.43;;;-0.30;86.82
59073;BME280;44859;51.934;15.554;2023-02-16T06:23:52;100482.43;;;-0.30;87.11
59073;BME280;44859;51.934;15.554;2023-02-16T06:26:36;100476.74;;;-0.29;87.10
59073;BME280;44859;51.934;15.554;2023-02-16T06:29:20;100471.58;;;-0.29;87.32
59073;BME280;44859;51.934;15.554;2023-02-16T06:31:56;100473.11;;;-0.28;87.21
59073;BME280;44859;51.934;15.554;2023-02-16T06:34:28;100468.80;;;-0.29;87.30
59073;BME280;44859;51.934;15.554;2023-02-16T06:37:04;100467.23;;;-0.31;87.41
59073;BME280;44859;51.934;15.554;2023-02-16T06:40:01;100466.70;;;-0.32;87.56
59073;BME280;44859;51.934;15.554;2023-02-16T06:42:33;100465.52;;;-0.30;87.25
59073;BME280;44859;51.934;15.554;2023-02-16T06:45:08;100464.30;;;-0.30;87.19
59073;BME280;44859;51.934;15.554;2023-02-16T06:48:05;100458.44;;;-0.30;87.45
59073;BME280;44859;51.934;15.554;2023-02-16T06:51:25;100457.59;;;-0.29;87.34
59073;BME280;44859;51.934;15.554;2023-02-16T06:54:32;100452.77;;;-0.28;87.40
59073;BME280;44859;51.934;15.554;2023-02-16T06:57:07;100445.52;;;-0.25;87.32
59073;BME280;44859;51.934;15.554;2023-02-16T06:59:41;100450.89;;;-0.22;87.70
59073;BME280;44859;51.934;15.554;2023-02-16T07:02:19;100453.84;;;-0.19;87.49
59073;BME280;44859;51.934;15.554;2023-02-16T07:05:53;100455.25;;;-0.14;87.69
59073;BME280;44859;51.934;15.554;2023-02-16T07:09:13;100459.95;;;-0.08;87.63
59073;BME280;44859;51.934;15.554;2023-02-16T07:12:23;100462.06;;;-0.03;87.42
59073;BME280;44859;51.934;15.554;2023-02-16T07:14:51;100465.00;;;0.00;87.32
59073;BME280;44859;51.934;15.554;2023-02-16T07:17:20;100462.62;;;0.08;87.21
59073;BME280;44859;51.934;15.554;2023-02-16T07:19:50;100459.04;;;0.19;86.95
59073;BME280;44859;51.934;15.554;2023-02-16T07:22:19;100456.48;;;0.24;86.80
59073;BME280;44859;51.934;15.554;2023-02-16T07:25:01;100455.98;;;0.30;86.63
59073;BME280;44859;51.934;15.554;2023-02-16T07:27:42;100462.75;;;0.39;86.51
59073;BME280;44859;51.934;15.554;2023-02-16T07:30:12;100461.56;;;0.46;86.27
59073;BME280;44859;51.934;15.554;2023-02-16T07:32:44;100464.87;;;0.53;86.07
59073;BME280;44859;51.934;15.554;2023-02-16T07:35:20;100463.16;;;0.63;86.09
59073;BME280;44859;51.934;15.554;2023-02-16T07:38:03;100461.64;;;0.74;85.77
59073;BME280;44859;51.934;15.554;2023-02-16T07:40:46;100461.50;;;0.89;85.72
59073;BME280;44859;51.934;15.554;2023-02-16T07:43:19;100460.81;;;0.99;85.21
59073;BME280;44859;51.934;15.554;2023-02-16T07:49:26;100462.39;;;1.15;84.44
59073;BME280;44859;51.934;15.554;2023-02-16T07:51:55;100462.04;;;1.24;84.52
59073;BME280;44859;51.934;15.554;2023-02-16T07:54:27;100462.21;;;1.31;84.15
59073;BME280;44859;51.934;15.554;2023-02-16T07:57:00;100458.41;;;1.35;83.88
59073;BME280;44859;51.934;15.554;2023-02-16T07:59:32;100454.95;;;1.39;83.34
59073;BME280;44859;51.934;15.554;2023-02-16T08:02:00;100452.17;;;1.43;83.07
59073;BME280;44859;51.934;15.554;2023-02-16T08:04:33;100458.73;;;1.48;83.36
59073;BME280;44859;51.934;15.554;2023-02-16T08:09:55;100462.39;;;1.48;82.95
59073;BME280;44859;51.934;15.554;2023-02-16T08:12:36;100467.05;;;1.42;82.66
59073;BME280;44859;51.934;15.554;2023-02-16T08:15:06;100472.08;;;1.41;82.91
59073;BME280;44859;51.934;15.554;2023-02-16T08:17:36;100474.50;;;1.41;82.95
59073;BME280;44859;51.934;15.554;2023-02-16T08:20:19;100474.33;;;1.40;82.71
59073;BME280;44859;51.934;15.554;2023-02-16T08:23:09;100476.74;;;1.41;82.83
59073;BME280;44859;51.934;15.554;2023-02-16T08:25:49;100480.91;;;1.46;82.90
59073;BME280;44859;51.934;15.554;2023-02-16T08:28:27;100475.19;;;1.51;82.85
59073;BME280;44859;51.934;15.554;2023-02-16T08:31:08;100467.55;;;1.58;82.92
59073;BME280;44859;51.934;15.554;2023-02-16T08:33:49;100475.69;;;1.66;82.81
59073;BME280;44859;51.934;15.554;2023-02-16T08:36:26;100476.55;;;1.71;82.55
59073;BME280;44859;51.934;15.554;2023-02-16T08:42:03;100479.80;;;1.92;82.58
59073;BME280;44859;51.934;15.554;2023-02-16T08:44:40;100482.38;;;2.01;82.45
59073;BME280;44859;51.934;15.554;2023-02-16T08:47:31;100477.51;;;2.08;82.41
59073;BME280;44859;51.934;15.554;2023-02-16T08:50:08;100476.44;;;2.16;82.22
59073;BME280;44859;51.934;15.554;2023-02-16T08:53:01;100477.27;;;2.25;81.79
59073;BME280;44859;51.934;15.554;2023-02-16T08:55:31;100478.79;;;2.39;82.08
59073;BME280;44859;51.934;15.554;2023-02-16T08:58:09;100478.91;;;2.49;81.77
59073;BME280;44859;51.934;15.554;2023-02-16T09:00:52;100479.38;;;2.60;81.72
59073;BME280;44859;51.934;15.554;2023-02-16T09:04:28;100475.86;;;2.69;81.39
59073;BME280;44859;51.934;15.554;2023-02-16T09:07:46;100476.32;;;2.81;81.25
59073;BME280;44859;51.934;15.554;2023-02-16T09:10:22;100476.95;;;2.88;81.14
59073;BME280;44859;51.934;15.554;2023-02-16T09:12:54;100477.59;;;2.98;81.09
59073;BME280;44859;51.934;15.554;2023-02-16T09:15:46;100477.84;;;3.12;80.81
59073;BME280;44859;51.934;15.554;2023-02-16T09:18:27;100469.07;;;3.24;80.64
59073;BME280;44859;51.934;15.554;2023-02-16T09:24:41;100465.02;;;3.53;80.13
59073;BME280;44859;51.934;15.554;2023-02-16T09:27:53;100462.11;;;3.66;79.47
59073;BME280;44859;51.934;15.554;2023-02-16T09:30:59;100459.95;;;3.73;79.30
59073;BME280;44859;51.934;15.554;2023-02-16T09:34:18;100457.79;;;3.80;79.04
59073;BME280;44859;51.934;15.554;2023-02-16T09:36:50;100458.06;;;3.87;78.99
59073;BME280;44859;51.934;15.554;2023-02-16T09:39:40;100461.84;;;3.92;78.10
59073;BME280;44859;51.934;15.554;2023-02-16T09:45:42;100458.52;;;3.95;78.25
59073;BME280;44859;51.934;15.554;2023-02-16T09:48:47;100457.99;;;3.94;77.89
59073;BME280;44859;51.934;15.554;2023-02-16T09:51:29;100459.66;;;3.85;77.76
59073;BME280;44859;51.934;15.554;2023-02-16T09:54:31;100463.52;;;3.82;77.81
59073;BME280;44859;51.934;15.554;2023-02-16T10:00:59;100469.27;;;3.95;77.35
59073;BME280;44859;51.934;15.554;2023-02-16T10:06:59;100476.96;;;4.08;77.13
59073;BME280;44859;51.934;15.554;2023-02-16T10:09:36;100480.39;;;4.14;77.09
59073;BME280;44859;51.934;15.554;2023-02-16T10:12:28;100478.20;;;4.22;76.72
59073;BME280;44859;51.934;15.554;2023-02-16T10:15:13;100480.39;;;4.28;76.99
59073;BME280;44859;51.934;15.554;2023-02-16T10:17:53;100477.02;;;4.33;76.52
59073;BME280;44859;51.934;15.554;2023-02-16T10:20:42;100475.60;;;4.36;76.49
59073;BME280;44859;51.934;15.554;2023-02-16T10:24:05;100471.27;;;4.35;75.97
59073;BME280;44859;51.934;15.554;2023-02-16T10:27:06;100469.91;;;4.45;76.21
59073;BME280;44859;51.934;15.554;2023-02-16T10:30:07;100465.85;;;4.51;76.33
59073;BME280;44859;51.934;15.554;2023-02-16T10:33:06;100461.89;;;4.60;76.23
59073;BME280;44859;51.934;15.554;2023-02-16T10:35:59;100458.69;;;4.66;75.77
59073;BME280;44859;51.934;15.554;2023-02-16T10:38:59;100455.79;;;4.74;75.42
59073;BME280;44859;51.934;15.554;2023-02-16T10:41:44;100453.50;;;4.75;74.86
59073;BME280;44859;51.934;15.554;2023-02-16T10:44:24;100451.68;;;4.81;74.98
59073;BME280;44859;51.934;15.554;2023-02-16T10:47:00;100456.58;;;4.92;75.09
59073;BME280;44859;51.934;15.554;2023-02-16T10:49:34;100446.61;;;5.06;74.51
59073;BME280;44859;51.934;15.554;2023-02-16T10:52:07;100446.91;;;5.20;74.00
59073;BME280;44859;51.934;15.554;2023-02-16T10:54:42;100441.88;;;5.30;73.98
59073;BME280;44859;51.934;15.554;2023-02-16T10:57:23;100446.37;;;5.42;73.81
59073;BME280;44859;51.934;15.554;2023-02-16T11:00:10;100443.17;;;5.57;73.05
59073;BME280;44859;51.934;15.554;2023-02-16T11:02:52;100438.98;;;5.66;73.19
59073;BME280;44859;51.934;15.554;2023-02-16T11:05:51;100436.34;;;5.77;72.68
59073;BME280;44859;51.934;15.554;2023-02-16T11:08:45;100433.18;;;5.88;72.70
59073;BME280;44859;51.934;15.554;2023-02-16T11:11:16;100432.65;;;5.99;72.05
59073;BME280;44859;51.934;15.554;2023-02-16T11:13:48;100432.60;;;6.01;71.55
59073;BME280;44859;51.934;15.554;2023-02-16T11:16:21;100432.87;;;6.05;71.52
59073;BME280;44859;51.934;15.554;2023-02-16T11:19:04;100429.02;;;6.15;71.83
59073;BME280;44859;51.934;15.554;2023-02-16T11:21:53;100430.08;;;6.31;71.35
59073;BME280;44859;51.934;15.554;2023-02-16T11:24:36;100426.88;;;6.42;70.85
59073;BME280;44859;51.934;15.554;2023-02-16T11:27:34;100421.29;;;6.51;70.91
59073;BME280;44859;51.934;15.554;2023-02-16T11:30:29;100419.95;;;6.63;70.71
59073;BME280;44859;51.934;15.554;2023-02-16T11:33:28;100419.11;;;6.78;69.66
59073;BME280;44859;51.934;15.554;2023-02-16T11:39:32;100413.55;;;6.99;69.15
59073;BME280;44859;51.934;15.554;2023-02-16T11:42:30;100410.86;;;7.02;68.87
59073;BME280;44859;51.934;15.554;2023-02-16T11:45:07;100410.84;;;7.24;68.44
59073;BME280;44859;51.934;15.554;2023-02-16T11:47:58;100409.67;;;7.42;68.25
59073;BME280;44859;51.934;15.554;2023-02-16T11:50:38;100400.88;;;7.51;67.61
59073;BME280;44859;51.934;15.554;2023-02-16T11:53:26;100401.79;;;7.63;66.98
59073;BME280;44859;51.934;15.554;2023-02-16T11:56:33;100405.41;;;7.78;66.85
59073;BME280;44859;51.934;15.554;2023-02-16T12:01:52;100399.04;;;8.18;66.52
59073;BME280;44859;51.934;15.554;2023-02-16T12:10:50;100378.50;;;8.45;64.56
59073;BME280;44859;51.934;15.554;2023-02-16T12:20:40;100368.94;;;8.71;63.43
59073;BME280;44859;51.934;15.554;2023-02-16T12:23:38;100364.48;;;8.84;63.72
59073;BME280;44859;51.934;15.554;2023-02-16T12:26:43;100357.86;;;8.99;63.71
59073;BME280;44859;51.934;15.554;2023-02-16T12:29:33;100353.77;;;9.12;62.58
59073;BME280;44859;51.934;15.554;2023-02-16T12:44:09;100343.94;;;9.67;61.07
59073;BME280;44859;51.934;15.554;2023-02-16T12:46:54;100337.19;;;9.70;60.30
59073;BME280;44859;51.934;15.554;2023-02-16T12:52:34;100334.55;;;9.70;59.52
59073;BME280;44859;51.934;15.554;2023-02-16T12:58:46;100323.91;;;10.01;58.32
59073;BME280;44859;51.934;15.554;2023-02-16T13:01:34;100316.02;;;10.01;59.10
59073;BME280;44859;51.934;15.554;2023-02-16T13:04:17;100315.12;;;10.16;59.36
59073;BME280;44859;51.934;15.554;2023-02-16T13:07:01;100313.23;;;10.38;59.03
59073;BME280;44859;51.934;15.554;2023-02-16T13:10:01;100312.48;;;10.65;59.29
59073;BME280;44859;51.934;15.554;2023-02-16T13:15:31;100310.47;;;10.59;56.64
59073;BME280;44859;51.934;15.554;2023-02-16T13:18:11;100308.73;;;10.58;56.99
59073;BME280;44859;51.934;15.554;2023-02-16T13:20:49;100308.54;;;10.68;57.14
59073;BME280;44859;51.934;15.554;2023-02-16T13:32:21;100306.80;;;10.84;55.57
59073;BME280;44859;51.934;15.554;2023-02-16T13:43:51;100295.90;;;10.27;56.52
59073;BME280;44859;51.934;15.554;2023-02-16T13:46:29;100296.30;;;10.13;55.62
59073;BME280;44859;51.934;15.554;2023-02-16T13:49:00;100297.25;;;9.97;55.89
59073;BME280;44859;51.934;15.554;2023-02-16T13:51:43;100298.88;;;9.81;56.62
59073;BME280;44859;51.934;15.554;2023-02-16T13:54:31;100298.23;;;9.76;56.73
59073;BME280;44859;51.934;15.554;2023-02-16T13:57:10;100299.21;;;9.78;57.63
59073;BME280;44859;51.934;15.554;2023-02-16T13:59:48;100299.17;;;9.92;57.77
59073;BME280;44859;51.934;15.554;2023-02-16T14:03:00;100298.33;;;10.05;56.91
59073;BME280;44859;51.934;15.554;2023-02-16T14:14:58;100291.46;;;10.24;56.08
59073;BME280;44859;51.934;15.554;2023-02-16T14:17:34;100289.02;;;10.33;56.35
59073;BME280;44859;51.934;15.554;2023-02-16T14:20:36;100291.88;;;10.50;55.60
59073;BME280;44859;51.934;15.554;2023-02-16T14:23:26;100292.46;;;10.65;55.17
59073;BME280;44859;51.934;15.554;2023-02-16T14:26:18;100291.23;;;10.62;54.49
59073;BME280;44859;51.934;15.554;2023-02-16T14:29:37;100291.34;;;10.46;54.97
59073;BME280;44859;51.934;15.554;2023-02-16T14:32:20;100291.36;;;10.36;54.72
59073;BME280;44859;51.934;15.554;2023-02-16T14:35:25;100292.15;;;10.38;55.40
59073;BME280;44859;51.934;15.554;2023-02-16T14:38:20;100286.95;;;10.37;55.08
59073;BME280;44859;51.934;15.554;2023-02-16T14:41:13;100286.71;;;10.34;55.33
59073;BME280;44859;51.934;15.554;2023-02-16T14:49:50;100289.98;;;10.79;54.71
59073;BME280;44859;51.934;15.554;2023-02-16T14:53:05;100291.34;;;10.46;55.12
59073;BME280;44859;51.934;15.554;2023-02-16T15:01:54;100285.41;;;10.13;55.25
59073;BME280;44859;51.934;15.554;2023-02-16T15:04:33;100289.06;;;10.04;55.27
59073;BME280;44859;51.934;15.554;2023-02-16T15:11:21;100291.73;;;10.36;54.22
59073;BME280;44859;51.934;15.554;2023-02-16T15:14:27;100293.55;;;10.20;53.34
59073;BME280;44859;51.934;15.554;2023-02-16T15:17:37;100294.94;;;10.20;53.29
59073;BME280;44859;51.934;15.554;2023-02-16T15:20:34;100291.34;;;10.00;53.17
59073;BME280;44859;51.934;15.554;2023-02-16T15:37:57;100289.17;;;8.84;54.69
59073;BME280;44859;51.934;15.554;2023-02-16T15:47:13;100282.78;;;8.38;55.51
59073;BME280;44859;51.934;15.554;2023-02-16T15:56:42;100286.58;;;8.05;56.73
59073;BME280;44859;51.934;15.554;2023-02-16T16:01:05;100286.73;;;7.88;57.14
59073;BME280;44859;51.934;15.554;2023-02-16T16:04:33;100290.84;;;7.80;57.53
59073;BME280;44859;51.934;15.554;2023-02-16T16:12:15;100289.16;;;7.66;58.09
59073;BME280;44859;51.934;15.554;2023-02-16T16:14:58;100283.27;;;7.57;58.29
59073;BME280;44859;51.934;15.554;2023-02-16T16:17:33;100278.09;;;7.54;58.63
59073;BME280;44859;51.934;15.554;2023-02-16T16:26:23;100268.66;;;7.55;59.02
59073;BME280;44859;51.934;15.554;2023-02-16T16:29:43;100267.13;;;7.52;59.39
59073;BME280;44859;51.934;15.554;2023-02-16T16:32:39;100271.77;;;7.50;59.03
59073;BME280;44859;51.934;15.554;2023-02-16T16:36:26;100275.85;;;7.42;59.87
59073;BME280;44859;51.934;15.554;2023-02-16T16:44:32;100280.00;;;7.43;60.07
59073;BME280;44859;51.934;15.554;2023-02-16T16:47:40;100274.27;;;7.42;60.13
59073;BME280;44859;51.934;15.554;2023-02-16T16:52:08;100269.33;;;7.37;60.59
59073;BME280;44859;51.934;15.554;2023-02-16T16:55:30;100266.39;;;7.48;60.48
59073;BME280;44859;51.934;15.554;2023-02-16T16:58:30;100270.78;;;7.53;60.41
59073;BME280;44859;51.934;15.554;2023-02-16T17:01:08;100274.71;;;7.51;60.59
59073;BME280;44859;51.934;15.554;2023-02-16T17:03:42;100281.19;;;7.50;60.70
59073;BME280;44859;51.934;15.554;2023-02-16T17:06:34;100283.22;;;7.53;60.83
59073;BME280;44859;51.934;15.554;2023-02-16T17:09:24;100280.28;;;7.58;60.53
59073;BME280;44859;51.934;15.554;2023-02-16T17:12:03;100277.80;;;7.66;60.35
59073;BME280;44859;51.934;15.554;2023-02-16T17:19:34;100283.91;;;7.83;60.43
59073;BME280;44859;51.934;15.554;2023-02-16T17:24:59;100281.27;;;7.72;61.49
59073;BME280;44859;51.934;15.554;2023-02-16T17:27:33;100284.02;;;7.68;61.33
59073;BME280;44859;51.934;15.554;2023-02-16T17:30:48;100281.45;;;7.66;61.69
59073;BME280;44859;51.934;15.554;2023-02-16T17:34:17;100284.27;;;7.71;61.70
59073;BME280;44859;51.934;15.554;2023-02-16T17:37:16;100283.86;;;7.67;61.88
59073;BME280;44859;51.934;15.554;2023-02-16T17:40:08;100282.75;;;7.69;62.18
59073;BME280;44859;51.934;15.554;2023-02-16T17:43:55;100284.20;;;7.73;62.20
59073;BME280;44859;51.934;15.554;2023-02-16T17:46:50;100287.27;;;7.70;62.11
59073;BME280;44859;51.934;15.554;2023-02-16T17:49:27;100286.88;;;7.66;62.33
59073;BME280;44859;51.934;15.554;2023-02-16T17:52:28;100278.98;;;7.61;62.74
59073;BME280;44859;51.934;15.554;2023-02-16T18:03:32;100277.27;;;7.46;63.45
59073;BME280;44859;51.934;15.554;2023-02-16T18:06:31;100279.81;;;7.44;63.53
59073;BME280;44859;51.934;15.554;2023-02-16T18:09:17;100274.48;;;7.41;63.76
59073;BME280;44859;51.934;15.554;2023-02-16T18:12:14;100278.20;;;7.44;63.94
59073;BME280;44859;51.934;15.554;2023-02-16T18:15:14;100280.86;;;7.43;63.95
59073;BME280;44859;51.934;15.554;2023-02-16T18:18:29;100278.23;;;7.37;63.80
59073;BME280;44859;51.934;15.554;2023-02-16T18:21:03;100275.82;;;7.37;64.33
59073;BME280;44859;51.934;15.554;2023-02-16T18:23:53;100275.05;;;7.33;64.19
59073;BME280;44859;51.934;15.554;2023-02-16T18:26:36;100271.16;;;7.34;64.71